Airfield :
LOGIN :

Register | Disclaimer

   EN    FR    IT 

 










Legend :    VFR   Marginal VFR   IFR   Intensive IFR   Very Intensive IFR
Visi :
Ceiling :
>= 8 km
>= 3000ft
5 to 8 km
1000 to 3000 ft
1500m to 5 km
500 to 1000 ft
800 to 1500m
200 to 500 ft
< 800m
< 200 ft
Symbols :   Thunderstorms  Fog  Heavy snow  Heavy precipitations  Wind > 20 kt
SIGMETs :     Misc.  Thunderstorms  Icing  Turbulence  Mountain Waves  Volcanic Ashes






- Airport Elevation : 755 ft
- IATA code : KSC


LZKZ - Kosice

CURRENT METAR :
  • 032100Z 01007KT CAVOK 23/14 Q1016 NOSIG

EXPIRED METARs :
  • 032030Z 36007KT CAVOK 24/14 Q1016 NOSIG
  • 032000Z 35007KT CAVOK 25/14 Q1016 NOSIG
  • 031930Z 35004KT 280V020 CAVOK 26/15 Q1016 NOSIG
  • 031900Z 02005KT CAVOK 27/14 Q1016 NOSIG
  • 031830Z 06004KT 030V090 CAVOK 27/15 Q1016 NOSIG

TAF TAF LZKZ
Valid from the 03 at 18:00 until the 04 at 18:00 UTC


031715Z 0318/0418 25005KT CAVOK
BECMG 0320/0322 01005KT
BECMG 0410/0412 06010KT



MET'MAP, your aeronautical weather chart ! - Copyright ORBIFLY December 2007 - Disclaimer

ORBIFLY MET'MAP TEAM :

Programming & Development : Alexandra Zaïnal
Original concept : Baudouin d'Aumeries
Technical & hardware support : Manuel Goepfert
Assistance : Marc-Olivier Méhu




SOURCES & CREDITS :

   NOAA